createdAt,value
2019-03-20T00:00:20.315Z,81.91
2019-03-20T00:02:49.189Z,82.03
2019-03-20T00:05:17.758Z,81.90
2019-03-20T00:07:46.060Z,81.66
2019-03-20T00:10:14.356Z,81.67
2019-03-20T00:12:42.653Z,81.70
2019-03-20T00:15:13.339Z,81.59
2019-03-20T00:17:41.659Z,81.63
2019-03-20T00:20:11.381Z,81.71
2019-03-20T00:22:39.988Z,81.77
2019-03-20T00:25:09.733Z,81.88
2019-03-20T00:27:38.027Z,82.06
2019-03-20T00:30:14.830Z,82.27
2019-03-20T00:32:43.190Z,82.57
2019-03-20T00:35:11.764Z,82.55
2019-03-20T00:37:40.150Z,82.50
2019-03-20T00:40:13.857Z,82.43
2019-03-20T00:42:42.154Z,82.50
2019-03-20T00:45:21.331Z,82.36
2019-03-20T00:47:49.991Z,82.43
2019-03-20T00:50:19.239Z,82.39
2019-03-20T00:52:47.585Z,82.26
2019-03-20T00:55:16.846Z,82.29
2019-03-20T00:57:45.400Z,82.54
2019-03-20T01:00:21.805Z,82.54
2019-03-20T01:02:50.178Z,82.55
2019-03-20T01:05:18.874Z,82.43
2019-03-20T01:07:47.268Z,82.60
2019-03-20T01:10:24.864Z,82.72
2019-03-20T01:12:53.159Z,82.79
2019-03-20T01:15:21.472Z,83.07
2019-03-20T01:17:49.939Z,83.29
2019-03-20T01:20:19.643Z,83.36
2019-03-20T01:22:48.117Z,83.44
2019-03-20T01:25:17.553Z,83.57
2019-03-20T01:27:45.923Z,83.40
2019-03-20T01:30:35.326Z,83.18
2019-03-20T01:33:06.484Z,82.97
2019-03-20T01:35:34.865Z,82.88
2019-03-20T01:38:03.181Z,83.14
2019-03-20T01:40:31.478Z,83.30
2019-03-20T01:42:59.770Z,83.38
2019-03-20T01:45:28.071Z,83.36
2019-03-20T01:47:56.733Z,83.36
2019-03-20T01:50:25.521Z,83.38
2019-03-20T01:52:53.826Z,83.63
2019-03-20T01:55:22.126Z,83.72
2019-03-20T01:57:50.456Z,83.43
2019-03-20T02:00:18.826Z,83.43
2019-03-20T02:02:47.152Z,83.61
2019-03-20T02:05:15.781Z,83.64
2019-03-20T02:07:44.495Z,83.58
2019-03-20T02:10:14.715Z,83.60
2019-03-20T02:12:43.094Z,83.61
2019-03-20T02:15:17.038Z,83.81
2019-03-20T02:17:45.418Z,83.79
2019-03-20T02:20:17.393Z,83.75
2019-03-20T02:22:45.705Z,83.92
2019-03-20T02:25:14.628Z,83.82
2019-03-20T02:27:42.963Z,83.98
2019-03-20T02:30:14.275Z,84.18
2019-03-20T02:32:42.927Z,84.05
2019-03-20T02:35:11.487Z,83.78
2019-03-20T02:37:39.861Z,83.85
2019-03-20T02:40:13.267Z,83.82
2019-03-20T02:42:41.563Z,83.89
2019-03-20T02:45:14.697Z,84.04
2019-03-20T02:47:43.058Z,84.18
2019-03-20T02:50:12.615Z,84.29
2019-03-20T02:52:40.912Z,84.26
2019-03-20T02:55:10.238Z,84.29
2019-03-20T02:57:38.611Z,84.34
2019-03-20T03:00:20.813Z,84.32
2019-03-20T03:02:49.197Z,84.37
2019-03-20T03:05:18.077Z,84.33
2019-03-20T03:07:46.373Z,84.25
2019-03-20T03:10:18.138Z,84.35
2019-03-20T03:12:46.455Z,84.38
2019-03-20T03:15:15.450Z,84.45
2019-03-20T03:17:44.039Z,84.70
2019-03-20T03:20:13.482Z,84.89
2019-03-20T03:22:41.811Z,85.04
2019-03-20T03:25:11.370Z,85.17
2019-03-20T03:27:39.692Z,85.01
2019-03-20T03:30:11.158Z,84.81
2019-03-20T03:32:39.496Z,84.84
2019-03-20T03:35:08.276Z,84.77
2019-03-20T03:37:36.537Z,84.78
2019-03-20T03:40:10.474Z,84.86
2019-03-20T03:42:38.811Z,84.87
2019-03-20T03:45:13.024Z,84.77
2019-03-20T03:47:41.594Z,84.74
2019-03-20T03:50:10.649Z,84.66
2019-03-20T03:52:39.114Z,84.71
2019-03-20T03:55:10.566Z,84.77
2019-03-20T03:57:39.216Z,84.74
2019-03-20T04:00:11.158Z,84.83
2019-03-20T04:02:39.483Z,84.96
2019-03-20T04:05:07.914Z,84.97
2019-03-20T04:07:36.232Z,85.10
2019-03-20T04:10:07.237Z,85.02
2019-03-20T04:12:36.128Z,84.89
2019-03-20T04:15:06.967Z,84.96
2019-03-20T04:17:35.267Z,85.21
2019-03-20T04:20:04.681Z,85.43
2019-03-20T04:22:32.958Z,85.44
2019-03-20T04:25:01.282Z,85.27
2019-03-20T04:27:29.889Z,85.25
2019-03-20T04:29:58.207Z,85.11
2019-03-20T04:32:26.799Z,85.04
2019-03-20T04:34:55.419Z,85.22
2019-03-20T04:37:23.748Z,85.45
2019-03-20T04:39:52.048Z,85.62
2019-03-20T04:42:20.388Z,85.58
2019-03-20T04:44:48.674Z,85.33
2019-03-20T04:47:16.964Z,85.13
2019-03-20T04:49:45.293Z,85.15
2019-03-20T04:52:13.590Z,85.30
2019-03-20T04:54:42.095Z,85.17
2019-03-20T04:57:10.394Z,85.18
2019-03-20T04:59:38.701Z,85.38
2019-03-20T05:02:07.027Z,85.61
2019-03-20T05:04:35.318Z,85.66
2019-03-20T05:07:03.646Z,85.56
2019-03-20T05:09:31.947Z,85.54
2019-03-20T05:12:00.305Z,85.35
2019-03-20T05:14:28.599Z,85.41
2019-03-20T05:16:56.921Z,85.46
2019-03-20T05:19:25.517Z,85.58
2019-03-20T05:21:53.811Z,85.68
2019-03-20T05:24:22.138Z,85.78
2019-03-20T05:26:50.440Z,85.83
2019-03-20T05:29:19.140Z,85.91
2019-03-20T05:31:47.718Z,85.73
2019-03-20T05:34:16.090Z,85.52
2019-03-20T05:36:44.410Z,85.61
2019-03-20T05:39:12.724Z,85.75
2019-03-20T05:41:41.046Z,85.50
2019-03-20T05:44:09.341Z,85.46
2019-03-20T05:46:37.662Z,85.58
2019-03-20T05:49:05.967Z,85.56
2019-03-20T05:51:34.270Z,85.80
2019-03-20T05:54:02.581Z,85.93
2019-03-20T05:56:31.191Z,85.98
2019-03-20T05:58:59.503Z,85.87
2019-03-20T06:01:27.803Z,85.75
2019-03-20T06:03:56.138Z,85.64
2019-03-20T06:06:24.443Z,85.69
2019-03-20T06:08:52.743Z,85.80
2019-03-20T06:11:21.113Z,85.87
2019-03-20T06:13:49.424Z,86.01
2019-03-20T06:16:17.755Z,86.12
2019-03-20T06:18:46.044Z,86.15
2019-03-20T06:21:14.514Z,86.17
2019-03-20T06:23:42.802Z,86.17
2019-03-20T06:26:11.439Z,85.97
2019-03-20T06:28:39.762Z,86.02
2019-03-20T06:31:08.105Z,86.05
2019-03-20T06:33:36.393Z,86.03
2019-03-20T06:36:04.850Z,86.07
2019-03-20T06:38:33.137Z,85.96
2019-03-20T06:41:01.448Z,85.84
2019-03-20T06:43:29.814Z,85.67
2019-03-20T06:45:58.313Z,85.41
2019-03-20T06:48:26.620Z,85.05
2019-03-20T06:50:54.925Z,84.84
2019-03-20T06:53:23.244Z,84.70
2019-03-20T06:55:51.547Z,84.75
2019-03-20T06:58:20.141Z,84.84
2019-03-20T07:01:03.515Z,84.67
2019-03-20T07:03:35.652Z,84.33
2019-03-20T07:06:16.094Z,83.87
2019-03-20T07:09:09.012Z,83.60
2019-03-20T07:11:40.434Z,83.35
2019-03-20T07:14:08.735Z,83.53
2019-03-20T07:16:37.367Z,83.61
2019-03-20T07:19:05.748Z,83.91
2019-03-20T07:21:34.051Z,83.89
2019-03-20T07:24:02.365Z,83.67
2019-03-20T07:26:30.987Z,83.36
2019-03-20T07:28:59.295Z,82.71
2019-03-20T07:31:27.619Z,82.31
2019-03-20T07:33:55.916Z,81.68
2019-03-20T07:36:24.490Z,81.73
2019-03-20T07:38:53.088Z,81.50
2019-03-20T07:41:21.675Z,81.31
2019-03-20T07:43:50.253Z,80.88
2019-03-20T07:46:19.461Z,80.01
2019-03-20T07:48:47.776Z,79.65
2019-03-20T07:51:16.075Z,78.73
2019-03-20T07:53:44.690Z,77.72
2019-03-20T07:56:12.987Z,76.73
2019-03-20T07:58:41.649Z,75.78
2019-03-20T08:01:09.937Z,75.42
2019-03-20T08:03:38.232Z,74.97
2019-03-20T08:06:06.889Z,73.65
2019-03-20T08:08:35.200Z,73.17
2019-03-20T08:11:03.562Z,72.91
2019-03-20T08:13:31.844Z,72.37
2019-03-20T08:16:00.145Z,71.53
2019-03-20T08:18:28.793Z,71.31
2019-03-20T08:20:57.101Z,70.10
2019-03-20T08:23:25.394Z,69.26
2019-03-20T08:25:53.960Z,68.99
2019-03-20T08:28:22.219Z,68.21
2019-03-20T08:30:50.539Z,66.75
2019-03-20T08:33:18.870Z,67.25
2019-03-20T08:35:47.154Z,66.91
2019-03-20T08:38:18.653Z,65.87
2019-03-20T08:40:45.551Z,65.50
2019-03-20T08:43:13.850Z,65.12
2019-03-20T08:45:42.159Z,64.51
2019-03-20T08:48:10.766Z,63.83
2019-03-20T08:50:39.055Z,63.79
2019-03-20T08:53:07.354Z,63.66
2019-03-20T08:55:35.659Z,63.66
2019-03-20T08:58:04.277Z,63.80
2019-03-20T09:00:32.827Z,64.41
2019-03-20T09:03:01.544Z,65.06
2019-03-20T09:05:29.845Z,65.28
2019-03-20T09:07:58.163Z,65.33
2019-03-20T09:10:29.670Z,64.96
2019-03-20T09:12:57.968Z,63.90
2019-03-20T09:15:26.359Z,63.68
2019-03-20T09:17:54.691Z,63.46
2019-03-20T09:20:24.039Z,62.73
2019-03-20T09:22:52.356Z,61.93
2019-03-20T09:25:24.510Z,61.94
2019-03-20T09:27:52.829Z,62.11
2019-03-20T09:30:23.249Z,62.09
2019-03-20T09:32:52.121Z,61.53
2019-03-20T09:35:20.758Z,61.44
2019-03-20T09:37:52.173Z,61.55
2019-03-20T09:40:23.635Z,61.57
2019-03-20T09:42:51.585Z,61.66
2019-03-20T09:45:20.922Z,61.84
2019-03-20T09:47:49.565Z,61.63
2019-03-20T09:50:24.820Z,61.87
2019-03-20T09:52:53.237Z,61.74
2019-03-20T09:55:21.576Z,61.79
2019-03-20T09:57:50.164Z,62.10
2019-03-20T10:00:28.619Z,61.66
2019-03-20T10:02:57.000Z,61.70
2019-03-20T10:05:25.303Z,61.51
2019-03-20T10:07:53.919Z,60.99
2019-03-20T10:10:28.386Z,60.97
2019-03-20T10:12:56.705Z,60.89
2019-03-20T10:15:30.298Z,60.49
2019-03-20T10:17:58.688Z,60.49
2019-03-20T10:20:27.094Z,59.94
2019-03-20T10:22:55.346Z,59.24
2019-03-20T10:25:23.657Z,59.92
2019-03-20T10:27:52.337Z,60.09
2019-03-20T10:30:23.336Z,60.32
2019-03-20T10:32:51.662Z,60.35
2019-03-20T10:35:20.043Z,60.13
2019-03-20T10:37:48.372Z,60.24
2019-03-20T10:40:21.553Z,60.46
2019-03-20T10:42:49.943Z,60.07
2019-03-20T10:45:20.268Z,59.79
2019-03-20T10:47:49.097Z,59.38
2019-03-20T10:50:21.458Z,58.50
2019-03-20T10:52:50.042Z,58.21
2019-03-20T10:55:18.430Z,58.11
2019-03-20T10:57:46.712Z,58.39
2019-03-20T11:00:25.404Z,58.50
2019-03-20T11:02:53.917Z,57.81
2019-03-20T11:05:22.675Z,57.32
2019-03-20T11:07:50.987Z,58.26
2019-03-20T11:10:26.974Z,57.63
2019-03-20T11:12:55.595Z,57.56
2019-03-20T11:15:24.543Z,57.18
2019-03-20T11:17:53.467Z,57.65
2019-03-20T11:20:22.964Z,57.75
2019-03-20T11:22:51.425Z,57.75
2019-03-20T11:25:25.767Z,58.28
2019-03-20T11:27:54.082Z,58.42
2019-03-20T11:30:26.845Z,59.03
2019-03-20T11:32:55.514Z,58.50
2019-03-20T11:35:23.878Z,58.17
2019-03-20T11:37:52.194Z,58.00
2019-03-20T11:40:25.090Z,57.04
2019-03-20T11:42:53.468Z,57.16
2019-03-20T11:45:23.557Z,56.87
2019-03-20T11:47:52.425Z,55.98
2019-03-20T11:50:37.902Z,56.69
2019-03-20T11:53:07.565Z,56.60
2019-03-20T11:55:36.486Z,56.31
2019-03-20T11:58:05.922Z,56.42
2019-03-20T12:00:34.231Z,55.92
2019-03-20T12:03:02.609Z,56.15
2019-03-20T12:05:30.900Z,56.13
2019-03-20T12:07:59.278Z,55.59
2019-03-20T12:10:32.402Z,55.45
2019-03-20T12:13:00.696Z,55.41
2019-03-20T12:15:29.113Z,55.80
2019-03-20T12:17:57.419Z,54.91
2019-03-20T12:20:26.317Z,55.37
2019-03-20T12:22:54.629Z,55.49
2019-03-20T12:25:33.351Z,55.80
2019-03-20T12:28:01.751Z,55.77
2019-03-20T12:30:34.599Z,55.63
2019-03-20T12:33:03.056Z,55.60
2019-03-20T12:35:34.552Z,55.34
2019-03-20T12:38:13.717Z,55.82
2019-03-20T12:40:33.228Z,55.93
2019-03-20T12:43:01.877Z,55.32
2019-03-20T12:45:35.639Z,55.97
2019-03-20T12:48:05.244Z,56.58
2019-03-20T12:50:33.545Z,57.01
2019-03-20T12:53:02.206Z,56.44
2019-03-20T12:55:31.178Z,56.43
2019-03-20T12:57:59.740Z,56.64
2019-03-20T13:00:28.759Z,56.36
2019-03-20T13:02:57.345Z,56.32
2019-03-20T13:05:25.647Z,55.86
2019-03-20T13:07:53.951Z,55.77
2019-03-20T13:10:26.128Z,55.44
2019-03-20T13:12:55.166Z,55.29
2019-03-20T13:15:24.305Z,55.00
2019-03-20T13:17:53.569Z,55.01
2019-03-20T13:20:22.036Z,55.04
2019-03-20T13:23:08.632Z,54.46
2019-03-20T13:25:37.308Z,54.46
2019-03-20T13:28:06.111Z,55.37
2019-03-20T13:30:37.613Z,54.95
2019-03-20T13:33:06.257Z,55.06
2019-03-20T13:35:34.561Z,55.06
2019-03-20T13:38:02.866Z,55.39
2019-03-20T13:40:31.342Z,55.33
2019-03-20T13:42:59.624Z,55.50
2019-03-20T13:45:29.524Z,55.39
2019-03-20T13:47:57.811Z,55.13
2019-03-20T13:50:26.135Z,55.88
2019-03-20T13:52:54.713Z,55.97
2019-03-20T13:55:23.304Z,56.46
2019-03-20T13:57:51.700Z,56.76
2019-03-20T14:00:25.319Z,56.90
2019-03-20T14:02:53.606Z,56.76
2019-03-20T14:05:21.990Z,56.47
2019-03-20T14:07:50.289Z,56.41
2019-03-20T14:10:25.471Z,56.96
2019-03-20T14:14:03.515Z,56.67
2019-03-20T14:16:31.832Z,56.92
2019-03-20T14:19:00.146Z,56.68
2019-03-20T14:21:28.455Z,56.68
2019-03-20T14:23:56.763Z,56.46
2019-03-20T14:26:25.072Z,56.80
2019-03-20T14:28:53.359Z,57.01
2019-03-20T14:31:21.673Z,57.40
2019-03-20T14:33:50.221Z,57.72
2019-03-20T14:36:18.592Z,57.46
2019-03-20T14:38:46.902Z,57.08
2019-03-20T14:41:21.615Z,56.51
2019-03-20T14:43:45.557Z,56.76
2019-03-20T14:46:14.121Z,56.96
2019-03-20T14:48:42.445Z,56.97
2019-03-20T14:51:10.740Z,56.46
2019-03-20T14:53:39.047Z,56.87
2019-03-20T14:56:07.645Z,56.36
2019-03-20T14:58:36.010Z,56.53
2019-03-20T15:01:04.837Z,56.82
2019-03-20T15:03:33.218Z,57.15
2019-03-20T15:06:01.560Z,58.05
2019-03-20T15:08:29.871Z,57.99
2019-03-20T15:10:58.236Z,57.98
2019-03-20T15:13:26.490Z,58.11
2019-03-20T15:15:57.983Z,58.52
2019-03-20T15:18:26.294Z,58.72
2019-03-20T15:20:54.596Z,59.09
2019-03-20T15:23:23.192Z,59.48
2019-03-20T15:25:51.471Z,59.32
2019-03-20T15:28:19.777Z,59.30
2019-03-20T15:30:48.066Z,59.48
2019-03-20T15:33:16.380Z,59.67
2019-03-20T15:35:44.668Z,59.69
2019-03-20T15:38:12.993Z,59.91
2019-03-20T15:40:41.314Z,60.21
2019-03-20T15:43:09.903Z,60.08
2019-03-20T15:45:38.249Z,60.03
2019-03-20T15:48:06.588Z,60.54
2019-03-20T15:50:34.973Z,60.49
2019-03-20T15:53:03.517Z,60.65
2019-03-20T15:55:33.833Z,60.67
2019-03-20T15:58:02.434Z,60.59
2019-03-20T16:00:30.756Z,60.61
2019-03-20T16:03:07.912Z,60.84
2019-03-20T16:05:36.231Z,61.04
2019-03-20T16:08:04.801Z,61.54
2019-03-20T16:10:33.438Z,61.74
2019-03-20T16:13:02.024Z,61.91
2019-03-20T16:15:30.709Z,61.89
2019-03-20T16:17:59.033Z,62.06
2019-03-20T16:20:27.404Z,62.25
2019-03-20T16:22:55.683Z,62.48
2019-03-20T16:25:24.896Z,62.89
2019-03-20T16:27:53.197Z,62.75
2019-03-20T16:30:27.233Z,62.81
2019-03-20T16:32:56.620Z,63.00
2019-03-20T16:35:25.034Z,63.10
2019-03-20T16:37:53.585Z,63.32
2019-03-20T16:40:27.039Z,62.93
2019-03-20T16:42:55.338Z,63.11
2019-03-20T16:45:26.257Z,63.41
2019-03-20T16:47:54.554Z,63.53
2019-03-20T16:50:23.017Z,63.92
2019-03-20T16:52:51.329Z,64.08
2019-03-20T16:55:19.669Z,63.95
2019-03-20T16:57:47.964Z,64.30
2019-03-20T17:00:32.758Z,64.47
2019-03-20T17:03:01.012Z,64.62
2019-03-20T17:05:30.732Z,64.75
2019-03-20T17:07:59.068Z,64.72
2019-03-20T17:10:36.085Z,64.86
2019-03-20T17:13:05.634Z,65.13
2019-03-20T17:15:35.564Z,65.29
2019-03-20T17:18:04.155Z,65.54
2019-03-20T17:20:32.459Z,65.74
2019-03-20T17:23:00.779Z,65.63
2019-03-20T17:25:29.337Z,65.84
2019-03-20T17:27:57.842Z,65.88
2019-03-20T17:30:34.688Z,66.40
2019-03-20T17:33:02.997Z,66.76
2019-03-20T17:35:31.285Z,66.88
2019-03-20T17:37:59.587Z,67.15
2019-03-20T17:40:28.649Z,67.25
2019-03-20T17:42:56.930Z,67.50
2019-03-20T17:45:27.255Z,67.69
2019-03-20T17:47:55.612Z,67.86
2019-03-20T17:50:34.828Z,68.10
2019-03-20T17:53:04.571Z,68.54
2019-03-20T17:55:33.241Z,68.65
2019-03-20T17:58:01.638Z,68.64
2019-03-20T18:00:41.003Z,68.74
2019-03-20T18:03:09.730Z,68.74
2019-03-20T18:05:38.091Z,68.92
2019-03-20T18:08:07.456Z,69.13
2019-03-20T18:10:35.746Z,69.29
2019-03-20T18:13:05.271Z,69.64
2019-03-20T18:15:33.829Z,70.02
2019-03-20T18:18:02.461Z,70.27
2019-03-20T18:20:31.052Z,70.66
2019-03-20T18:22:59.392Z,71.03
2019-03-20T18:25:27.721Z,71.48
2019-03-20T18:27:56.053Z,71.97
2019-03-20T18:30:29.391Z,72.30
2019-03-20T18:32:57.706Z,72.36
2019-03-20T18:35:26.068Z,72.42
2019-03-20T18:37:54.393Z,72.37
2019-03-20T18:40:23.835Z,72.50
2019-03-20T18:42:52.499Z,72.60
2019-03-20T18:45:22.241Z,73.05
2019-03-20T18:47:50.812Z,73.17
2019-03-20T18:50:20.203Z,73.33
2019-03-20T18:52:48.843Z,73.49
2019-03-20T18:55:18.441Z,73.70
2019-03-20T18:57:47.379Z,73.71
2019-03-20T19:00:32.424Z,73.90
2019-03-20T19:03:03.850Z,74.20
2019-03-20T19:05:37.922Z,74.36
2019-03-20T19:08:06.321Z,74.58
2019-03-20T19:10:34.699Z,74.76
2019-03-20T19:13:03.254Z,74.89
2019-03-20T19:15:31.556Z,75.10
2019-03-20T19:17:59.866Z,75.34
2019-03-20T19:20:28.196Z,75.55
2019-03-20T19:22:56.557Z,75.83
2019-03-20T19:25:24.884Z,76.20
2019-03-20T19:27:53.244Z,76.45
2019-03-20T19:30:26.883Z,76.64
2019-03-20T19:32:55.223Z,76.78
2019-03-20T19:35:23.546Z,76.90
2019-03-20T19:37:51.859Z,77.04
2019-03-20T19:40:21.388Z,77.23
2019-03-20T19:42:49.767Z,77.36
2019-03-20T19:45:18.743Z,77.25
2019-03-20T19:47:47.067Z,77.25
2019-03-20T19:50:17.948Z,77.42
2019-03-20T19:52:46.334Z,77.50
2019-03-20T19:55:15.931Z,77.46
2019-03-20T19:57:44.243Z,77.59
2019-03-20T20:00:18.784Z,77.70
2019-03-20T20:02:47.182Z,77.75
2019-03-20T20:05:16.381Z,77.60
2019-03-20T20:07:44.808Z,77.65
2019-03-20T20:10:14.940Z,77.65
2019-03-20T20:12:43.319Z,77.78
2019-03-20T20:15:32.173Z,77.90
2019-03-20T20:18:00.509Z,77.87
2019-03-20T20:20:31.261Z,77.95
2019-03-20T20:22:59.584Z,77.88
2019-03-20T20:25:27.882Z,77.99
2019-03-20T20:27:56.188Z,77.96
2019-03-20T20:30:24.506Z,78.03
2019-03-20T20:32:52.886Z,78.04
2019-03-20T20:35:21.437Z,78.19
2019-03-20T20:37:50.475Z,78.14
2019-03-20T20:40:31.853Z,78.22
2019-03-20T20:43:00.188Z,78.33
2019-03-20T20:45:28.767Z,78.51
2019-03-20T20:47:57.068Z,78.73
2019-03-20T20:50:25.461Z,78.83
2019-03-20T20:52:54.029Z,78.81
2019-03-20T20:55:23.098Z,78.65
2019-03-20T20:57:51.399Z,78.59
2019-03-20T21:00:26.530Z,78.73
2019-03-20T21:02:54.907Z,78.95
2019-03-20T21:05:23.300Z,79.07
2019-03-20T21:07:51.627Z,79.19
2019-03-20T21:10:20.793Z,79.13
2019-03-20T21:12:56.142Z,79.16
2019-03-20T21:15:37.074Z,79.07
2019-03-20T21:18:14.047Z,78.80
2019-03-20T21:20:42.611Z,78.62
2019-03-20T21:23:41.620Z,78.65
2019-03-20T21:26:21.865Z,78.75
2019-03-20T21:29:26.576Z,78.74
2019-03-20T21:32:06.885Z,78.91
2019-03-20T21:35:01.557Z,79.07
2019-03-20T21:37:54.220Z,79.23
2019-03-20T21:40:22.611Z,79.24
2019-03-20T21:43:10.414Z,79.48
2019-03-20T21:45:50.910Z,79.58
2019-03-20T21:48:19.563Z,79.67
2019-03-20T21:50:54.035Z,79.81
2019-03-20T21:53:54.826Z,79.97
2019-03-20T21:56:38.883Z,80.11
2019-03-20T21:59:27.627Z,80.21
2019-03-20T22:02:07.911Z,80.37
2019-03-20T22:04:36.236Z,80.33
2019-03-20T22:07:11.849Z,80.55
2019-03-20T22:09:52.417Z,80.63
2019-03-20T22:12:39.113Z,80.63
2019-03-20T22:15:30.565Z,80.62
2019-03-20T22:18:23.452Z,80.56
2019-03-20T22:21:19.278Z,80.76
2019-03-20T22:23:53.588Z,80.90
2019-03-20T22:26:46.310Z,80.91
2019-03-20T22:29:27.779Z,81.17
2019-03-20T22:32:29.328Z,81.67
2019-03-20T22:35:32.208Z,81.87
2019-03-20T22:38:02.300Z,82.12
2019-03-20T22:41:07.177Z,82.30
2019-03-20T22:43:47.668Z,82.20
2019-03-20T22:46:51.302Z,82.33
2019-03-20T22:49:43.997Z,82.69
2019-03-20T22:52:27.688Z,82.85
2019-03-20T22:55:25.491Z,83.00
2019-03-20T22:58:08.699Z,82.86
2019-03-20T23:00:37.199Z,82.68
2019-03-20T23:03:08.664Z,82.98
2019-03-20T23:05:36.980Z,83.43
2019-03-20T23:08:15.917Z,83.62
2019-03-20T23:10:47.187Z,83.79
2019-03-20T23:13:19.307Z,83.83
2019-03-20T23:15:46.019Z,84.09
2019-03-20T23:18:14.414Z,84.30
2019-03-20T23:20:43.021Z,84.43
2019-03-20T23:23:11.344Z,84.43
2019-03-20T23:25:39.770Z,84.35
2019-03-20T23:28:08.327Z,84.07
2019-03-20T23:30:36.649Z,84.08
2019-03-20T23:33:11.050Z,84.34
2019-03-20T23:35:39.350Z,84.62
2019-03-20T23:38:07.658Z,84.75
2019-03-20T23:40:35.950Z,84.82
2019-03-20T23:43:10.140Z,84.81
2019-03-20T23:45:38.436Z,84.66
2019-03-20T23:48:35.499Z,84.62
2019-03-20T23:51:09.827Z,84.63
2019-03-20T23:53:39.577Z,84.81
2019-03-20T23:56:07.883Z,84.94
2019-03-20T23:58:36.422Z,85.02
